Time;durP1;ratioP1;P1;durP2;ratioP2;P2;SDS_P1;SDS_P2;PMS_P1;PMS_P2;Temp;Humidity;BMP_temperature;BMP_pressure;BME280_temperature;BME280_humidity;BME280_pressure;Samples;Min_cycle;Max_cycle;Signal;HPM_P1;HPM_P2
2023/01/23 00:02:16;;;;;;;11.95;10.25;;;7.30;70.80;;;;;;5086333;28;20299;-70
2023/01/23 00:04:43;;;;;;;12.63;10.63;;;7.40;70.80;;;;;;5071633;28;20201;-69
2023/01/23 00:07:10;;;;;;;10.45;9.35;;;7.30;70.80;;;;;;5072201;28;20235;-69
2023/01/23 00:09:37;;;;;;;13.02;10.23;;;7.30;70.80;;;;;;5091613;28;20204;-69
2023/01/23 00:12:05;;;;;;;11.07;9.70;;;7.30;70.80;;;;;;5092429;28;20204;-70
2023/01/23 00:14:33;;;;;;;13.82;10.20;;;7.30;70.80;;;;;;5091844;28;20208;-70
2023/01/23 00:17:00;;;;;;;10.80;9.50;;;7.20;70.80;;;;;;5091983;28;20231;-71
2023/01/23 00:19:27;;;;;;;11.35;10.07;;;7.30;70.80;;;;;;5071802;28;20211;-71
2023/01/23 00:21:53;;;;;;;12.95;10.05;;;7.20;70.70;;;;;;5071006;28;20225;-70
2023/01/23 00:24:20;;;;;;;11.45;9.40;;;7.20;71.50;;;;;;5071612;28;20239;-70
2023/01/23 00:26:47;;;;;;;11.68;9.85;;;7.30;70.80;;;;;;5071539;28;20205;-70
2023/01/23 00:29:15;;;;;;;11.37;10.10;;;7.20;70.70;;;;;;5071236;28;20212;-70
2023/01/23 00:31:43;;;;;;;11.68;9.60;;;7.30;70.80;;;;;;5088295;28;20437;-70
2023/01/23 00:34:12;;;;;;;12.43;10.20;;;7.20;70.70;;;;;;5112647;28;20210;-70
2023/01/23 00:36:41;;;;;;;12.70;10.50;;;7.20;70.70;;;;;;5077979;28;20205;-70
2023/01/23 00:39:12;;;;;;;13.15;10.18;;;7.30;70.80;;;;;;5083917;28;20672;-70
2023/01/23 00:41:39;;;;;;;10.80;9.20;;;7.20;70.70;;;;;;5071491;28;20209;-70
2023/01/23 00:44:06;;;;;;;12.27;9.80;;;7.20;70.70;;;;;;5071836;28;20459;-70
2023/01/23 00:46:33;;;;;;;12.15;9.60;;;7.20;70.70;;;;;;5071686;28;20483;-70
2023/01/23 00:49:02;;;;;;;11.02;9.80;;;7.30;70.90;;;;;;5071324;28;20601;-70
2023/01/23 00:51:29;;;;;;;12.37;10.30;;;7.20;70.80;;;;;;5075116;28;20279;-70
2023/01/23 00:53:56;;;;;;;12.77;10.70;;;7.20;70.90;;;;;;5091222;28;20455;-70
2023/01/23 00:56:23;;;;;;;13.95;10.40;;;7.20;70.90;;;;;;5072228;28;20292;-70
2023/01/23 00:58:50;;;;;;;11.73;10.30;;;7.20;70.80;;;;;;5071348;28;20205;-70
2023/01/23 01:01:17;;;;;;;12.85;9.95;;;7.20;70.90;;;;;;5071487;28;20232;-70
2023/01/23 01:03:44;;;;;;;12.95;10.60;;;7.20;71.10;;;;;;5072978;28;20549;-70
2023/01/23 01:06:13;;;;;;;12.95;10.68;;;7.20;71.30;;;;;;5075512;28;20201;-70
2023/01/23 01:08:39;;;;;;;12.07;10.40;;;7.30;71.40;;;;;;5087968;28;20200;-71
2023/01/23 01:11:07;;;;;;;13.27;10.00;;;7.20;71.20;;;;;;5095576;28;20197;-71
2023/01/23 01:13:34;;;;;;;10.90;9.37;;;7.20;71.20;;;;;;5095096;28;20649;-70
2023/01/23 01:16:01;;;;;;;11.80;9.98;;;7.30;71.20;;;;;;5094773;28;20462;-69
2023/01/23 01:18:28;;;;;;;12.98;9.98;;;7.20;71.10;;;;;;5095002;28;20200;-69
2023/01/23 01:20:55;;;;;;;12.05;9.32;;;7.20;71.40;;;;;;5079365;28;20209;-70
2023/01/23 01:23:24;;;;;;;11.80;9.82;;;7.20;71.30;;;;;;5074812;28;20595;-70
2023/01/23 01:25:51;;;;;;;12.05;10.07;;;7.30;71.40;;;;;;5074504;28;20190;-69
2023/01/23 01:28:18;;;;;;;13.43;10.15;;;7.30;71.40;;;;;;5083929;28;20197;-70
2023/01/23 01:30:45;;;;;;;12.68;10.13;;;7.30;71.50;;;;;;5094867;28;20211;-70
2023/01/23 01:33:12;;;;;;;12.45;10.27;;;7.30;71.50;;;;;;5108259;28;20580;-68
2023/01/23 01:35:39;;;;;;;14.15;10.35;;;7.30;71.50;;;;;;5074459;28;20220;-69
2023/01/23 01:38:07;;;;;;;11.60;9.80;;;7.30;71.40;;;;;;5091575;28;20200;-69
2023/01/23 01:40:37;;;;;;;12.75;9.77;;;7.30;71.50;;;;;;5095203;28;20446;-69
2023/01/23 01:43:06;;;;;;;12.98;10.55;;;7.30;71.50;;;;;;5094594;28;20234;-69
2023/01/23 01:46:12;;;;;;;12.18;10.15;;;7.30;71.60;;;;;;5094909;28;20211;-69
2023/01/23 01:48:47;;;;;;;12.00;9.75;;;7.30;71.60;;;;;;5092212;28;20190;-70
2023/01/23 01:51:21;;;;;;;11.60;9.32;;;7.20;71.60;;;;;;5074800;28;20189;-70
2023/01/23 01:53:51;;;;;;;14.38;9.60;;;7.20;71.70;;;;;;5073949;28;20730;-71
2023/01/23 01:56:20;;;;;;;11.95;10.00;;;7.30;71.60;;;;;;5074382;28;20238;-71
2023/01/23 01:58:51;;;;;;;10.82;9.60;;;7.30;71.60;;;;;;5083525;28;20196;-69
2023/01/23 02:01:19;;;;;;;10.05;8.98;;;7.30;71.50;;;;;;5094481;28;20236;-70
2023/01/23 02:03:47;;;;;;;11.07;9.35;;;7.20;71.60;;;;;;5080783;28;20250;-71
2023/01/23 02:06:14;;;;;;;11.27;9.70;;;7.30;71.70;;;;;;5085043;28;20664;-70
2023/01/23 02:08:48;;;;;;;11.38;9.07;;;7.30;71.60;;;;;;5090974;28;20200;-71
2023/01/23 02:11:17;;;;;;;11.10;9.23;;;7.30;71.60;;;;;;5093519;28;20192;-69
2023/01/23 02:13:45;;;;;;;11.15;9.05;;;7.30;71.60;;;;;;5093894;28;20450;-69
2023/01/23 02:16:14;;;;;;;11.55;9.73;;;7.30;71.60;;;;;;5093288;28;20223;-69
2023/01/23 02:18:46;;;;;;;12.10;9.93;;;7.30;71.50;;;;;;5093710;28;20211;-69
2023/01/23 02:21:15;;;;;;;11.38;9.02;;;7.20;71.40;;;;;;5093790;28;20823;-69
2023/01/23 02:23:58;;;;;;;11.35;9.10;;;7.30;71.40;;;;;;5086294;28;20267;-69
2023/01/23 02:26:31;;;;;;;10.05;8.75;;;7.30;71.50;;;;;;5073727;28;20193;-70
2023/01/23 02:28:59;;;;;;;13.13;9.73;;;7.20;71.40;;;;;;5073192;28;20192;-71
2023/01/23 02:31:26;;;;;;;11.80;9.00;;;7.20;71.50;;;;;;5086152;28;20683;-70
2023/01/23 02:33:54;;;;;;;12.27;9.43;;;7.20;71.50;;;;;;5108702;28;20207;-69
2023/01/23 02:36:23;;;;;;;12.38;9.50;;;7.20;71.50;;;;;;5084502;28;20201;-69
2023/01/23 02:38:58;;;;;;;11.98;9.93;;;7.20;71.60;;;;;;5073109;28;20209;-69
2023/01/23 02:41:29;;;;;;;11.07;9.03;;;7.20;71.60;;;;;;5074008;28;20201;-69
2023/01/23 02:43:59;;;;;;;11.77;9.25;;;7.30;71.70;;;;;;5072827;28;20431;-69
2023/01/23 02:46:26;;;;;;;12.60;10.05;;;7.30;71.60;;;;;;5073192;28;20201;-69
2023/01/23 02:48:53;;;;;;;11.50;9.85;;;7.20;71.50;;;;;;5073272;28;20197;-69
2023/01/23 02:51:21;;;;;;;11.70;8.98;;;7.20;71.60;;;;;;5086625;28;20205;-69
2023/01/23 02:53:48;;;;;;;12.52;9.38;;;7.20;71.50;;;;;;5093040;28;20204;-69
2023/01/23 02:56:16;;;;;;;13.52;9.32;;;7.30;71.60;;;;;;5093488;28;20210;-69
2023/01/23 03:01:30;;;;;;;11.35;9.02;;;7.30;71.50;;;;;;5093175;28;20266;-70
2023/01/23 03:03:57;;;;;;;13.02;9.20;;;7.20;71.50;;;;;;5092767;28;20200;-69
2023/01/23 03:06:24;;;;;;;10.65;8.75;;;7.20;71.60;;;;;;5092724;28;20197;-70
2023/01/23 03:08:50;;;;;;;11.87;9.00;;;7.30;71.70;;;;;;5072905;28;20207;-70
2023/01/23 03:11:18;;;;;;;11.27;9.77;;;7.20;71.60;;;;;;5073056;28;20454;-69
2023/01/23 03:13:47;;;;;;;12.43;9.90;;;7.30;71.70;;;;;;5072042;28;21012;-69
2023/01/23 03:16:14;;;;;;;12.20;9.77;;;7.20;71.60;;;;;;5072977;28;20467;-71
2023/01/23 03:18:41;;;;;;;12.65;9.48;;;7.20;71.60;;;;;;5081603;28;20222;-71
2023/01/23 03:21:08;;;;;;;11.48;9.20;;;7.20;71.60;;;;;;5081230;28;20208;-70
2023/01/23 03:23:39;;;;;;;10.77;8.90;;;7.20;71.60;;;;;;5072052;28;20697;-69
2023/01/23 03:26:06;;;;;;;12.80;9.20;;;7.20;72.30;;;;;;5072036;28;20441;-71
2023/01/23 03:31:18;;;;;;;13.52;9.57;;;7.30;72.30;;;;;;5082568;28;20233;-71
2023/01/23 03:33:45;;;;;;;13.35;9.30;;;7.30;71.40;;;;;;5090786;28;20212;-69
2023/01/23 03:36:13;;;;;;;11.85;9.65;;;7.30;71.60;;;;;;5092857;28;20262;-69
2023/01/23 03:41:23;;;;;;;12.68;9.45;;;7.30;71.50;;;;;;5088937;28;20204;-69
2023/01/23 03:41:27;;;;;;;11.50;9.02;;;7.20;71.50;;;;;;5071849;28;20252;-69
2023/01/23 03:43:54;;;;;;;11.33;8.93;;;7.30;72.20;;;;;;5071941;28;20232;-69
2023/01/23 03:46:22;;;;;;;13.02;9.73;;;7.20;71.40;;;;;;5072730;28;20443;-69
2023/01/23 03:48:49;;;;;;;11.45;8.93;;;7.20;71.30;;;;;;5085895;28;20204;-69
2023/01/23 03:51:16;;;;;;;10.73;8.60;;;7.20;71.30;;;;;;5078731;28;20212;-69
2023/01/23 03:53:42;;;;;;;11.60;8.77;;;7.20;71.40;;;;;;5071820;28;20212;-69
2023/01/23 03:56:12;;;;;;;12.93;9.60;;;7.20;71.30;;;;;;5071831;28;20447;-69
2023/01/23 03:58:39;;;;;;;10.90;9.23;;;7.30;71.40;;;;;;5072461;28;20205;-70
2023/01/23 04:01:07;;;;;;;11.40;8.70;;;7.30;71.30;;;;;;5071965;28;20451;-69
2023/01/23 04:03:35;;;;;;;12.55;9.30;;;7.20;71.20;;;;;;5072428;28;20507;-69
2023/01/23 04:06:02;;;;;;;11.88;9.50;;;7.20;71.30;;;;;;5089274;28;20197;-69
2023/01/23 04:08:29;;;;;;;10.57;8.50;;;7.20;71.40;;;;;;5092107;28;20201;-69
2023/01/23 04:11:02;;;;;;;10.90;8.75;;;7.20;71.40;;;;;;5081044;28;20250;-70
2023/01/23 04:13:29;;;;;;;12.50;9.23;;;7.20;71.50;;;;;;5072373;28;20193;-69
2023/01/23 04:15:55;;;;;;;12.93;9.05;;;7.20;71.50;;;;;;5071313;28;21001;-69
2023/01/23 04:18:23;;;;;;;12.38;9.07;;;7.20;71.60;;;;;;5081189;28;20211;-70
2023/01/23 04:20:51;;;;;;;13.55;9.98;;;7.20;71.60;;;;;;5085709;28;20196;-71
2023/01/23 04:23:18;;;;;;;11.07;8.77;;;7.20;71.60;;;;;;5091740;28;20227;-69
2023/01/23 04:25:45;;;;;;;11.27;8.40;;;7.20;71.50;;;;;;5093616;28;20556;-69
2023/01/23 04:28:11;;;;;;;9.45;8.00;;;7.20;71.50;;;;;;5092339;28;20208;-70
2023/01/23 04:30:38;;;;;;;10.15;8.23;;;7.20;71.40;;;;;;5091879;28;20632;-69
2023/01/23 04:33:05;;;;;;;10.27;8.20;;;7.20;71.30;;;;;;5074613;28;20202;-68
2023/01/23 04:35:32;;;;;;;10.50;7.90;;;7.20;71.30;;;;;;5071881;28;20205;-69
2023/01/23 04:38:00;;;;;;;10.52;8.13;;;7.20;71.30;;;;;;5072335;28;20216;-69
2023/01/23 04:40:27;;;;;;;11.10;8.25;;;7.20;71.40;;;;;;5075766;28;20223;-69
2023/01/23 04:42:54;;;;;;;10.55;7.95;;;7.20;71.50;;;;;;5075309;28;20221;-69
2023/01/23 04:45:22;;;;;;;10.07;8.15;;;7.20;71.40;;;;;;5075770;28;20201;-70
2023/01/23 04:47:49;;;;;;;10.23;7.85;;;7.20;71.50;;;;;;5084802;28;20200;-69
2023/01/23 04:50:16;;;;;;;13.02;8.73;;;7.20;71.40;;;;;;5087893;28;20221;-70
2023/01/23 04:52:43;;;;;;;11.17;8.50;;;7.20;71.50;;;;;;5075444;28;20220;-69
2023/01/23 04:55:11;;;;;;;10.80;8.43;;;7.20;71.40;;;;;;5075114;28;20447;-69
2023/01/23 04:57:38;;;;;;;13.40;8.10;;;7.20;71.50;;;;;;5075397;28;20928;-69
2023/01/23 05:00:06;;;;;;;10.68;8.00;;;7.20;71.50;;;;;;5092898;28;20446;-69
2023/01/23 05:02:33;;;;;;;11.37;8.50;;;7.20;71.50;;;;;;5095697;28;20308;-70
2023/01/23 05:05:00;;;;;;;9.88;7.63;;;7.20;71.50;;;;;;5095044;28;20779;-69
2023/01/23 05:07:27;;;;;;;10.25;7.80;;;7.20;71.50;;;;;;5095736;28;20209;-70
2023/01/23 05:09:54;;;;;;;10.05;7.85;;;7.20;71.60;;;;;;5094327;28;20283;-69
2023/01/23 05:12:22;;;;;;;10.40;8.05;;;7.20;71.50;;;;;;5095284;28;20197;-69
2023/01/23 05:14:49;;;;;;;11.25;8.10;;;7.20;71.60;;;;;;5095752;28;20200;-69
2023/01/23 05:17:16;;;;;;;10.60;8.20;;;7.20;71.50;;;;;;5086393;28;20225;-71
2023/01/23 05:19:43;;;;;;;11.27;8.18;;;7.20;71.40;;;;;;5084689;28;20478;-70
2023/01/23 05:22:10;;;;;;;11.43;7.70;;;7.20;71.50;;;;;;5074047;28;20301;-69
2023/01/23 05:24:36;;;;;;;11.18;7.93;;;7.20;71.50;;;;;;5074587;28;20494;-69
2023/01/23 05:27:04;;;;;;;10.02;7.97;;;7.20;71.30;;;;;;5074658;28;20231;-69
2023/01/23 05:29:32;;;;;;;10.38;7.57;;;7.20;71.50;;;;;;5075028;28;20201;-71
2023/01/23 05:31:59;;;;;;;10.55;7.80;;;7.20;71.50;;;;;;5083405;28;20197;-69
2023/01/23 05:34:26;;;;;;;9.32;8.05;;;7.20;71.60;;;;;;5078362;28;20200;-70
2023/01/23 05:36:53;;;;;;;10.40;8.07;;;7.20;71.60;;;;;;5094107;28;20216;-69
2023/01/23 05:39:20;;;;;;;9.95;7.72;;;7.20;72.30;;;;;;5094977;28;20544;-68
2023/01/23 05:41:47;;;;;;;12.25;7.85;;;7.20;72.40;;;;;;5074723;28;20266;-68
2023/01/23 05:44:14;;;;;;;9.27;7.72;;;7.20;71.70;;;;;;5074127;28;20224;-69
2023/01/23 05:46:42;;;;;;;9.70;7.30;;;7.20;71.50;;;;;;5074733;28;20193;-69
2023/01/23 05:49:09;;;;;;;11.23;7.67;;;7.20;71.40;;;;;;5072570;28;20650;-69
2023/01/23 05:51:36;;;;;;;10.15;7.90;;;7.20;71.40;;;;;;5093170;28;20443;-69
2023/01/23 05:54:03;;;;;;;9.40;7.57;;;7.10;71.10;;;;;;5095507;28;20197;-69
2023/01/23 05:56:30;;;;;;;10.82;8.30;;;7.10;70.80;;;;;;5094716;28;20212;-69
2023/01/23 05:58:57;;;;;;;10.03;7.80;;;7.10;70.60;;;;;;5094451;28;20205;-69
2023/01/23 06:01:24;;;;;;;10.10;7.53;;;7.10;70.60;;;;;;5086396;28;20448;-69
2023/01/23 06:03:52;;;;;;;10.00;7.45;;;7.10;70.60;;;;;;5074837;28;20558;-69
2023/01/23 06:06:19;;;;;;;9.50;7.20;;;7.00;70.50;;;;;;5074309;28;20612;-69
2023/01/23 06:08:46;;;;;;;11.48;8.05;;;7.00;70.50;;;;;;5083914;28;20668;-69
2023/01/23 06:11:13;;;;;;;9.82;7.53;;;7.00;70.50;;;;;;5093422;28;20296;-69
2023/01/23 06:13:39;;;;;;;10.32;7.68;;;7.00;70.50;;;;;;5094594;28;20292;-69
2023/01/23 06:16:08;;;;;;;11.43;7.63;;;7.00;70.50;;;;;;5085907;28;20256;-69
2023/01/23 06:18:35;;;;;;;9.88;7.20;;;6.90;70.20;;;;;;5073558;28;20212;-69
2023/01/23 06:21:04;;;;;;;10.57;7.50;;;6.90;70.20;;;;;;5073455;28;20205;-69
2023/01/23 06:23:30;;;;;;;10.70;7.00;;;6.80;70.10;;;;;;5080324;28;20220;-68
2023/01/23 06:26:00;;;;;;;11.60;7.47;;;6.80;70.10;;;;;;5093790;28;20275;-69
2023/01/23 06:28:27;;;;;;;12.02;7.50;;;6.70;70.10;;;;;;5093923;28;20208;-68
2023/01/23 06:30:54;;;;;;;10.02;7.50;;;6.70;70.10;;;;;;5088767;28;20205;-68
2023/01/23 06:33:21;;;;;;;9.52;8.05;;;6.70;70.20;;;;;;5095212;28;20634;-68
2023/01/23 06:35:48;;;;;;;10.13;8.00;;;6.70;70.20;;;;;;5073769;28;20205;-70
2023/01/23 06:38:18;;;;;;;10.25;7.65;;;6.70;70.10;;;;;;5081016;28;20287;-70
2023/01/23 06:40:45;;;;;;;9.80;7.60;;;6.70;70.10;;;;;;5092162;28;20232;-70
2023/01/23 06:43:12;;;;;;;10.85;7.57;;;6.60;70.00;;;;;;5081634;28;20303;-69
2023/01/23 06:45:39;;;;;;;11.35;8.02;;;6.60;70.10;;;;;;5083828;28;20706;-72
2023/01/23 06:48:06;;;;;;;9.80;7.55;;;6.60;70.20;;;;;;5072536;28;20212;-70
2023/01/23 06:50:33;;;;;;;9.30;7.28;;;6.60;70.30;;;;;;5073492;28;20292;-70
2023/01/23 06:53:00;;;;;;;13.20;8.35;;;6.60;70.50;;;;;;5072344;28;20528;-70
2023/01/23 06:55:28;;;;;;;11.48;8.38;;;6.70;70.60;;;;;;5073428;28;20201;-72
2023/01/23 06:57:55;;;;;;;10.80;8.00;;;6.90;70.90;;;;;;5073877;28;20296;-70
2023/01/23 07:00:23;;;;;;;10.33;8.10;;;6.70;70.70;;;;;;5090922;28;20679;-71
2023/01/23 07:02:51;;;;;;;9.98;8.23;;;6.70;70.80;;;;;;5072884;28;20514;-72
2023/01/23 07:05:18;;;;;;;11.60;8.25;;;6.70;70.50;;;;;;5072311;28;20212;-70
2023/01/23 07:07:45;;;;;;;11.93;8.80;;;6.60;70.40;;;;;;5072880;28;20243;-71
2023/01/23 07:10:12;;;;;;;10.75;8.02;;;6.70;70.40;;;;;;5072551;28;20211;-72
2023/01/23 07:12:40;;;;;;;10.77;8.18;;;6.80;70.60;;;;;;5079563;28;20199;-72
2023/01/23 07:15:08;;;;;;;12.48;8.32;;;6.80;70.20;;;;;;5084683;28;20716;-70
2023/01/23 07:17:35;;;;;;;11.35;9.07;;;6.90;70.40;;;;;;5078395;28;20197;-72
2023/01/23 07:20:02;;;;;;;12.90;9.05;;;6.90;70.40;;;;;;5092653;28;20235;-71
2023/01/23 07:22:29;;;;;;;11.48;8.55;;;6.90;70.40;;;;;;5088893;28;20201;-71
2023/01/23 07:24:56;;;;;;;13.52;9.20;;;6.90;70.50;;;;;;5092855;28;20293;-70
2023/01/23 07:27:23;;;;;;;12.40;8.82;;;6.90;70.40;;;;;;5088302;28;20267;-69
2023/01/23 07:29:51;;;;;;;12.20;9.10;;;6.90;70.40;;;;;;5072527;28;20212;-72
2023/01/23 07:32:19;;;;;;;12.25;8.95;;;6.90;70.30;;;;;;5078178;28;20296;-71
2023/01/23 07:34:46;;;;;;;12.52;8.63;;;6.90;70.40;;;;;;5072412;28;20284;-71
2023/01/23 07:37:13;;;;;;;11.55;8.68;;;6.90;70.30;;;;;;5073125;28;20209;-71
2023/01/23 07:39:40;;;;;;;12.15;9.27;;;7.00;70.40;;;;;;5072358;28;20211;-71
2023/01/23 07:42:07;;;;;;;13.38;9.52;;;6.90;71.10;;;;;;5071288;28;20209;-72
2023/01/23 07:44:34;;;;;;;12.48;9.75;;;7.00;70.50;;;;;;5071835;28;20224;-71
2023/01/23 07:47:03;;;;;;;12.10;8.40;;;7.00;71.20;;;;;;5071719;28;20292;-71
2023/01/23 07:49:30;;;;;;;11.27;7.93;;;7.00;70.50;;;;;;5072306;28;20963;-71
2023/01/23 07:51:56;;;;;;;12.50;8.68;;;7.00;70.40;;;;;;5071982;28;20619;-71
2023/01/23 07:54:23;;;;;;;13.45;8.93;;;7.00;70.30;;;;;;5072098;28;20209;-71
2023/01/23 07:56:51;;;;;;;14.70;8.90;;;7.00;70.10;;;;;;5071873;28;20263;-71
2023/01/23 07:59:18;;;;;;;13.85;9.25;;;7.10;70.00;;;;;;5071143;28;21162;-71
2023/01/23 08:01:45;;;;;;;11.80;8.48;;;7.10;69.90;;;;;;5072252;28;20289;-71
2023/01/23 08:04:13;;;;;;;11.75;8.07;;;7.10;69.60;;;;;;5071150;28;20220;-71
2023/01/23 08:06:40;;;;;;;12.98;8.68;;;7.10;70.40;;;;;;5072380;28;20287;-71
2023/01/23 08:09:07;;;;;;;16.35;10.52;;;7.10;69.60;;;;;;5071514;28;20208;-71
2023/01/23 08:11:37;;;;;;;15.73;9.85;;;7.10;69.90;;;;;;5072173;28;20288;-71
2023/01/23 08:14:04;;;;;;;15.88;9.65;;;7.10;69.60;;;;;;5070490;28;20657;-71
2023/01/23 08:16:31;;;;;;;14.50;9.07;;;7.10;70.30;;;;;;5071952;28;20308;-71
2023/01/23 08:18:58;;;;;;;13.55;9.23;;;7.10;69.40;;;;;;5071829;28;20209;-71
2023/01/23 08:21:26;;;;;;;13.27;9.20;;;7.10;69.60;;;;;;5072105;28;20263;-71
2023/01/23 08:23:53;;;;;;;14.57;8.38;;;7.10;69.50;;;;;;5071960;28;20272;-71
2023/01/23 08:26:20;;;;;;;14.48;9.77;;;7.20;69.40;;;;;;5072209;28;20630;-71
2023/01/23 08:28:47;;;;;;;12.63;8.55;;;7.20;69.40;;;;;;5072155;28;20227;-70
2023/01/23 08:31:15;;;;;;;11.50;8.80;;;7.20;69.40;;;;;;5080431;28;20223;-71
2023/01/23 08:33:48;;;;;;;11.80;8.75;;;7.20;69.20;;;;;;5112644;28;20196;-71
2023/01/23 08:36:15;;;;;;;14.52;9.05;;;7.30;69.30;;;;;;5111855;28;20199;-71
2023/01/23 08:38:43;;;;;;;13.70;8.93;;;7.30;69.20;;;;;;5112781;28;20569;-71
2023/01/23 08:41:11;;;;;;;12.82;9.30;;;7.30;69.10;;;;;;5070495;28;20284;-71
2023/01/23 08:43:40;;;;;;;12.63;9.07;;;7.30;69.10;;;;;;5071397;28;20236;-71
2023/01/23 08:46:07;;;;;;;12.00;8.63;;;7.30;69.10;;;;;;5071231;28;20451;-71
2023/01/23 08:48:34;;;;;;;11.15;8.70;;;7.40;69.10;;;;;;5071647;28;20542;-72
2023/01/23 08:51:03;;;;;;;10.63;8.75;;;7.40;68.90;;;;;;5071920;28;20205;-71
2023/01/23 08:53:31;;;;;;;13.23;8.88;;;7.40;69.00;;;;;;5071552;28;20292;-71
2023/01/23 08:56:04;;;;;;;10.75;8.68;;;7.50;69.20;;;;;;5071615;28;20207;-71
2023/01/23 08:58:31;;;;;;;12.87;9.03;;;7.40;69.10;;;;;;5071750;28;20190;-71
2023/01/23 09:00:59;;;;;;;11.33;8.60;;;7.50;69.00;;;;;;5071398;28;20470;-71
2023/01/23 09:03:26;;;;;;;13.05;9.07;;;7.50;69.20;;;;;;5071081;28;20871;-70
2023/01/23 09:05:53;;;;;;;11.60;9.00;;;7.50;69.10;;;;;;5071684;28;20207;-71
2023/01/23 09:08:20;;;;;;;14.35;9.70;;;7.50;69.20;;;;;;5071192;28;20455;-71
2023/01/23 09:10:46;;;;;;;12.17;9.63;;;7.60;69.20;;;;;;5071714;28;20662;-71
2023/01/23 09:13:15;;;;;;;13.50;9.88;;;7.60;69.00;;;;;;5071181;28;20479;-71
2023/01/23 09:15:42;;;;;;;16.42;10.38;;;7.60;68.90;;;;;;5071631;28;20264;-72
2023/01/23 09:18:09;;;;;;;15.87;10.70;;;7.60;69.10;;;;;;5071102;28;20557;-71
2023/01/23 09:20:38;;;;;;;15.23;10.67;;;7.70;69.30;;;;;;5084382;28;20442;-71
2023/01/23 09:23:05;;;;;;;12.93;9.77;;;7.70;69.30;;;;;;5090999;28;20553;-70
2023/01/23 09:25:32;;;;;;;14.88;10.73;;;7.70;69.20;;;;;;5094634;28;20466;-71
2023/01/23 09:27:58;;;;;;;16.10;10.53;;;7.70;69.20;;;;;;5095083;28;20200;-72
2023/01/23 09:30:27;;;;;;;17.50;10.97;;;7.70;69.20;;;;;;5094772;28;20843;-72
2023/01/23 09:32:54;;;;;;;18.65;12.20;;;7.80;69.00;;;;;;5094965;28;20537;-72
2023/01/23 09:35:22;;;;;;;17.17;11.10;;;7.80;68.80;;;;;;5094535;28;20196;-71
2023/01/23 09:38:03;;;;;;;18.57;12.53;;;7.80;68.80;;;;;;5095328;28;20450;-71
2023/01/23 09:40:34;;;;;;;16.48;10.50;;;7.80;69.90;;;;;;5080109;28;20527;-72
2023/01/23 09:43:08;;;;;;;16.20;10.87;;;7.80;69.00;;;;;;5074771;28;20185;-70
2023/01/23 09:45:38;;;;;;;13.57;10.03;;;7.80;68.80;;;;;;5074277;28;20982;-71
2023/01/23 09:48:20;;;;;;;13.93;9.85;;;7.80;68.80;;;;;;5022266;28;20435;-72
2023/01/23 09:50:55;;;;;;;13.80;9.53;;;7.80;69.10;;;;;;5075001;28;20648;-70
2023/01/23 09:53:25;;;;;;;14.63;10.60;;;7.80;69.10;;;;;;5074089;28;20491;-73
2023/01/23 09:55:59;;;;;;;16.10;10.57;;;7.80;69.20;;;;;;5074367;28;20880;-73
2023/01/23 09:58:35;;;;;;;13.07;9.27;;;7.80;69.20;;;;;;5073996;28;20296;-73
2023/01/23 10:01:03;;;;;;;14.90;10.40;;;7.90;69.30;;;;;;5074391;28;20525;-72
2023/01/23 10:03:32;;;;;;;14.13;10.32;;;7.90;68.80;;;;;;5074292;28;20530;-73
2023/01/23 10:06:18;;;;;;;15.00;9.82;;;7.90;68.80;;;;;;5073971;28;20201;-72
2023/01/23 10:09:00;;;;;;;14.50;9.45;;;7.90;68.60;;;;;;5074222;28;20575;-72
2023/01/23 10:11:36;;;;;;;12.77;9.30;;;8.00;68.90;;;;;;5073403;28;20201;-72
2023/01/23 10:14:19;;;;;;;13.23;8.90;;;8.00;68.60;;;;;;5073824;28;20493;-71
2023/01/23 10:17:06;;;;;;;15.33;9.50;;;8.00;69.40;;;;;;5074206;28;20919;-70
2023/01/23 10:19:43;;;;;;;14.63;9.13;;;8.10;68.40;;;;;;5074723;28;20494;-71
2023/01/23 10:22:37;;;;;;;13.90;8.83;;;8.10;68.40;;;;;;5073201;28;20493;-72
2023/01/23 10:25:14;;;;;;;12.43;8.50;;;8.10;68.20;;;;;;5066776;28;21081;-73
2023/01/23 10:27:43;;;;;;;12.00;8.63;;;8.10;67.70;;;;;;5084055;28;20437;-71
2023/01/23 10:30:32;;;;;;;13.17;9.40;;;8.10;67.10;;;;;;5093140;28;20537;-71
2023/01/23 10:33:08;;;;;;;11.93;8.83;;;8.10;67.30;;;;;;5094211;28;20439;-71
2023/01/23 10:35:40;;;;;;;11.03;8.00;;;8.10;66.90;;;;;;5093243;28;20509;-70
2023/01/23 10:38:20;;;;;;;9.10;6.63;;;8.10;66.20;;;;;;5093281;28;20503;-70
2023/01/23 10:43:33;;;;;;;10.20;8.32;;;8.10;65.10;;;;;;5093413;28;20422;-71
2023/01/23 10:46:00;;;;;;;9.70;7.53;;;8.10;64.10;;;;;;5093930;28;20221;-71
2023/01/23 10:48:39;;;;;;;10.27;7.87;;;8.10;64.10;;;;;;5093404;28;20535;-70
2023/01/23 10:51:25;;;;;;;10.53;7.90;;;8.10;63.80;;;;;;5093662;28;20525;-71
2023/01/23 10:54:10;;;;;;;8.63;7.27;;;8.10;64.30;;;;;;5093454;28;20490;-72
2023/01/23 10:56:46;;;;;;;12.23;7.77;;;8.10;63.80;;;;;;5093765;28;20503;-72
2023/01/23 10:59:20;;;;;;;9.13;7.30;;;8.10;63.30;;;;;;5092897;28;20434;-71
2023/01/23 11:01:56;;;;;;;9.67;7.60;;;8.10;63.30;;;;;;5093321;28;20516;-71
2023/01/23 11:04:26;;;;;;;9.23;7.30;;;8.20;63.10;;;;;;5092680;28;20524;-72
2023/01/23 11:07:07;;;;;;;9.40;6.87;;;8.20;63.90;;;;;;5093131;28;20882;-71
2023/01/23 11:09:46;;;;;;;10.60;8.40;;;8.20;62.80;;;;;;5093532;28;20445;-70
2023/01/23 11:12:17;;;;;;;10.13;7.97;;;8.20;62.50;;;;;;5092261;28;20472;-72
2023/01/23 11:14:44;;;;;;;9.77;7.67;;;8.20;62.20;;;;;;5093335;28;20431;-70
2023/01/23 11:17:19;;;;;;;8.00;6.20;;;8.20;62.50;;;;;;5092554;28;20562;-71
2023/01/23 11:19:50;;;;;;;8.30;6.43;;;8.20;62.60;;;;;;5092979;28;20435;-70
2023/01/23 11:22:29;;;;;;;10.20;7.87;;;8.10;62.30;;;;;;5092269;28;20435;-71
2023/01/23 11:24:57;;;;;;;9.30;7.22;;;8.10;62.40;;;;;;5092517;28;20493;-71
2023/01/23 11:27:27;;;;;;;10.40;6.97;;;8.10;62.20;;;;;;5092455;28;20291;-71
2023/01/23 11:30:31;;;;;;;9.87;6.43;;;8.20;62.00;;;;;;5092789;28;20204;-70
2023/01/23 11:32:59;;;;;;;8.07;6.63;;;8.20;62.70;;;;;;5092641;28;20443;-72
2023/01/23 11:35:47;;;;;;;9.53;7.17;;;8.10;61.70;;;;;;5092217;28;20446;-70
2023/01/23 11:38:18;;;;;;;8.53;6.87;;;8.20;61.30;;;;;;5092329;28;20887;-73
2023/01/23 11:40:46;;;;;;;9.63;6.90;;;8.20;61.60;;;;;;5075496;28;20444;-72
2023/01/23 11:43:15;;;;;;;9.07;6.57;;;8.20;62.60;;;;;;5071540;28;20452;-71
2023/01/23 11:45:56;;;;;;;9.03;6.97;;;8.30;61.80;;;;;;5072571;28;20485;-73
2023/01/23 11:48:36;;;;;;;10.00;6.70;;;8.30;61.80;;;;;;5071023;28;20482;-71
2023/01/23 11:51:11;;;;;;;9.27;6.83;;;8.30;62.40;;;;;;5071950;28;20443;-71
2023/01/23 11:53:44;;;;;;;10.23;6.77;;;8.40;62.00;;;;;;5072278;28;20553;-72
2023/01/23 11:56:45;;;;;;;8.83;6.63;;;8.70;61.80;;;;;;5035942;28;20450;-72
2023/01/23 11:59:31;;;;;;;9.77;7.37;;;8.90;61.00;;;;;;5071946;28;20467;-72
2023/01/23 12:02:25;;;;;;;8.70;6.40;;;9.10;59.70;;;;;;5072553;28;20432;-71
2023/01/23 12:05:08;;;;;;;7.97;6.93;;;9.30;59.80;;;;;;5068530;28;20489;-72
2023/01/23 12:07:45;;;;;;;8.47;7.10;;;9.80;59.70;;;;;;5071818;28;20517;-72
2023/01/23 12:10:21;;;;;;;10.03;6.77;;;10.20;57.80;;;;;;5071734;28;20518;-72
2023/01/23 12:13:25;;;;;;;9.53;7.03;;;10.40;56.30;;;;;;5072460;28;20427;-72
2023/01/23 12:16:07;;;;;;;7.90;6.50;;;10.60;56.00;;;;;;5072280;28;20555;-71
2023/01/23 12:18:46;;;;;;;9.10;7.27;;;10.70;56.30;;;;;;5071257;28;20428;-71
2023/01/23 12:21:18;;;;;;;9.50;7.30;;;10.80;55.40;;;;;;5071342;28;21003;-71
2023/01/23 12:24:00;;;;;;;10.93;7.77;;;11.00;55.30;;;;;;5072015;28;20491;-71
2023/01/23 12:26:29;;;;;;;9.97;7.10;;;11.00;54.30;;;;;;5071607;28;20459;-71
2023/01/23 12:29:17;;;;;;;9.53;7.50;;;10.90;54.50;;;;;;5072175;28;20443;-70
2023/01/23 12:32:09;;;;;;;9.60;7.63;;;10.70;54.40;;;;;;5089597;28;20446;-70
2023/01/23 12:34:56;;;;;;;8.90;7.37;;;10.60;54.80;;;;;;5111743;28;20890;-70
2023/01/23 12:37:42;;;;;;;8.53;6.77;;;10.50;55.10;;;;;;5111960;28;20430;-71
2023/01/23 12:40:16;;;;;;;9.53;7.70;;;10.40;54.90;;;;;;5100661;28;20442;-71
2023/01/23 12:42:50;;;;;;;9.67;7.80;;;10.50;55.40;;;;;;5092576;28;20518;-70
2023/01/23 12:45:22;;;;;;;8.87;7.30;;;10.70;55.00;;;;;;5091591;28;20462;-70
2023/01/23 12:47:57;;;;;;;9.53;7.07;;;10.80;54.70;;;;;;5091773;28;20441;-72
2023/01/23 12:50:29;;;;;;;8.93;7.03;;;10.90;55.00;;;;;;5091573;28;20471;-72
2023/01/23 12:53:01;;;;;;;8.77;7.27;;;10.80;54.80;;;;;;5092406;28;20446;-72
2023/01/23 12:55:35;;;;;;;9.23;7.13;;;10.70;54.90;;;;;;5091416;28;20435;-73
2023/01/23 12:58:04;;;;;;;10.70;6.93;;;10.60;54.90;;;;;;5092274;28;20520;-71
2023/01/23 13:00:42;;;;;;;8.87;7.60;;;10.50;54.80;;;;;;5058921;28;20436;-72
2023/01/23 13:03:49;;;;;;;9.33;7.20;;;10.30;55.00;;;;;;5095908;28;20474;-72
2023/01/23 13:06:33;;;;;;;7.80;6.77;;;10.10;54.90;;;;;;4993199;28;20832;-72
2023/01/23 13:09:06;;;;;;;8.77;6.60;;;9.90;56.30;;;;;;4993560;28;20466;-73
2023/01/23 13:11:41;;;;;;;8.53;6.70;;;9.80;57.00;;;;;;5054578;28;20442;-73